sensor_id;sensor_type;location;lat;lon;timestamp;temperature;humidity
71096;DHT22;58753;49.440;11.126;2023-07-30T00:00:00;18.22;83.52
71096;DHT22;58753;49.440;11.126;2023-07-30T00:02:26;18.14;83.69
71096;DHT22;58753;49.440;11.126;2023-07-30T00:04:54;18.14;83.85
71096;DHT22;58753;49.440;11.126;2023-07-30T00:07:19;18.06;83.85
71096;DHT22;58753;49.440;11.126;2023-07-30T00:09:45;18.05;84.00
71096;DHT22;58753;49.440;11.126;2023-07-30T00:12:12;17.97;83.96
71096;DHT22;58753;49.440;11.126;2023-07-30T00:14:40;17.99;84.19
71096;DHT22;58753;49.440;11.126;2023-07-30T00:17:05;17.93;84.35
71096;DHT22;58753;49.440;11.126;2023-07-30T00:19:36;17.96;84.45
71096;DHT22;58753;49.440;11.126;2023-07-30T00:22:01;17.92;84.64
71096;DHT22;58753;49.440;11.126;2023-07-30T00:24:29;17.92;84.67
71096;DHT22;58753;49.440;11.126;2023-07-30T00:26:57;17.89;84.86
71096;DHT22;58753;49.440;11.126;2023-07-30T00:29:22;17.90;84.97
71096;DHT22;58753;49.440;11.126;2023-07-30T00:31:47;17.92;85.03
71096;DHT22;58753;49.440;11.126;2023-07-30T00:34:13;17.95;85.21
71096;DHT22;58753;49.440;11.126;2023-07-30T00:36:38;17.96;85.38
71096;DHT22;58753;49.440;11.126;2023-07-30T00:39:04;17.97;85.41
71096;DHT22;58753;49.440;11.126;2023-07-30T00:41:30;17.97;85.61
71096;DHT22;58753;49.440;11.126;2023-07-30T00:43:57;18.00;85.76
71096;DHT22;58753;49.440;11.126;2023-07-30T00:46:23;18.00;85.77
71096;DHT22;58753;49.440;11.126;2023-07-30T00:48:49;17.99;85.85
71096;DHT22;58753;49.440;11.126;2023-07-30T00:51:16;17.99;85.99
71096;DHT22;58753;49.440;11.126;2023-07-30T00:53:44;17.99;86.18
71096;DHT22;58753;49.440;11.126;2023-07-30T00:56:09;17.99;86.18
71096;DHT22;58753;49.440;11.126;2023-07-30T00:58:37;17.99;86.35
71096;DHT22;58753;49.440;11.126;2023-07-30T01:01:02;18.02;86.46
71096;DHT22;58753;49.440;11.126;2023-07-30T01:03:32;17.99;86.48
71096;DHT22;58753;49.440;11.126;2023-07-30T01:06:00;18.02;86.50
71096;DHT22;58753;49.440;11.126;2023-07-30T01:08:30;17.95;86.63
71096;DHT22;58753;49.440;11.126;2023-07-30T01:10:56;17.95;86.67
71096;DHT22;58753;49.440;11.126;2023-07-30T01:13:22;17.92;86.96
71096;DHT22;58753;49.440;11.126;2023-07-30T01:15:48;17.92;87.07
71096;DHT22;58753;49.440;11.126;2023-07-30T01:18:16;17.89;87.01
71096;DHT22;58753;49.440;11.126;2023-07-30T01:20:44;17.92;87.26
71096;DHT22;58753;49.440;11.126;2023-07-30T01:23:10;17.89;87.22
71096;DHT22;58753;49.440;11.126;2023-07-30T01:25:38;17.83;87.15
71096;DHT22;58753;49.440;11.126;2023-07-30T01:28:09;17.78;87.35
71096;DHT22;58753;49.440;11.126;2023-07-30T01:30:41;17.72;88.16
71096;DHT22;58753;49.440;11.126;2023-07-30T01:33:10;17.68;88.44
71096;DHT22;58753;49.440;11.126;2023-07-30T01:35:36;17.64;88.48
71096;DHT22;58753;49.440;11.126;2023-07-30T01:38:06;17.62;88.76
71096;DHT22;58753;49.440;11.126;2023-07-30T01:40:36;17.61;89.07
71096;DHT22;58753;49.440;11.126;2023-07-30T01:43:01;17.66;89.30
71096;DHT22;58753;49.440;11.126;2023-07-30T01:45:27;17.66;89.32
71096;DHT22;58753;49.440;11.126;2023-07-30T01:47:52;17.65;89.49
71096;DHT22;58753;49.440;11.126;2023-07-30T01:50:18;17.64;89.63
71096;DHT22;58753;49.440;11.126;2023-07-30T01:52:45;17.65;89.85
71096;DHT22;58753;49.440;11.126;2023-07-30T01:55:11;17.68;89.97
71096;DHT22;58753;49.440;11.126;2023-07-30T01:57:36;17.68;90.04
71096;DHT22;58753;49.440;11.126;2023-07-30T02:00:02;17.65;90.00
71096;DHT22;58753;49.440;11.126;2023-07-30T02:02:28;17.65;90.27
71096;DHT22;58753;49.440;11.126;2023-07-30T02:04:53;17.66;90.47
71096;DHT22;58753;49.440;11.126;2023-07-30T02:07:19;17.66;90.54
71096;DHT22;58753;49.440;11.126;2023-07-30T02:09:44;17.65;90.62
71096;DHT22;58753;49.440;11.126;2023-07-30T02:12:09;17.59;90.65
71096;DHT22;58753;49.440;11.126;2023-07-30T02:14:37;17.59;90.88
71096;DHT22;58753;49.440;11.126;2023-07-30T02:17:03;17.59;90.97
71096;DHT22;58753;49.440;11.126;2023-07-30T02:19:31;17.58;91.01
71096;DHT22;58753;49.440;11.126;2023-07-30T02:21:58;17.55;90.95
71096;DHT22;58753;49.440;11.126;2023-07-30T02:24:24;17.54;91.10
71096;DHT22;58753;49.440;11.126;2023-07-30T02:26:49;17.48;91.27
71096;DHT22;58753;49.440;11.126;2023-07-30T02:29:14;17.48;91.34
71096;DHT22;58753;49.440;11.126;2023-07-30T02:31:40;17.45;91.48
71096;DHT22;58753;49.440;11.126;2023-07-30T02:34:05;17.46;91.73
71096;DHT22;58753;49.440;11.126;2023-07-30T02:36:33;17.46;91.77
71096;DHT22;58753;49.440;11.126;2023-07-30T02:39:01;17.49;91.90
71096;DHT22;58753;49.440;11.126;2023-07-30T02:41:26;17.45;92.05
71096;DHT22;58753;49.440;11.126;2023-07-30T02:43:51;17.42;92.09
71096;DHT22;58753;49.440;11.126;2023-07-30T02:46:17;17.44;92.19
71096;DHT22;58753;49.440;11.126;2023-07-30T02:48:45;17.44;92.28
71096;DHT22;58753;49.440;11.126;2023-07-30T02:51:12;17.41;92.35
71096;DHT22;58753;49.440;11.126;2023-07-30T02:53:38;17.42;92.55
71096;DHT22;58753;49.440;11.126;2023-07-30T02:56:03;17.44;92.61
71096;DHT22;58753;49.440;11.126;2023-07-30T02:58:29;17.42;92.46
71096;DHT22;58753;49.440;11.126;2023-07-30T03:00:54;17.39;92.54
71096;DHT22;58753;49.440;11.126;2023-07-30T03:03:19;17.35;92.61
71096;DHT22;58753;49.440;11.126;2023-07-30T03:05:47;17.32;92.66
71096;DHT22;58753;49.440;11.126;2023-07-30T03:08:15;17.30;92.85
71096;DHT22;58753;49.440;11.126;2023-07-30T03:10:43;17.31;93.02
71096;DHT22;58753;49.440;11.126;2023-07-30T03:13:08;17.34;92.99
71096;DHT22;58753;49.440;11.126;2023-07-30T03:15:38;17.38;93.21
71096;DHT22;58753;49.440;11.126;2023-07-30T03:18:04;17.39;93.12
71096;DHT22;58753;49.440;11.126;2023-07-30T03:20:29;17.39;93.15
71096;DHT22;58753;49.440;11.126;2023-07-30T03:22:54;17.35;93.06
71096;DHT22;58753;49.440;11.126;2023-07-30T03:25:22;17.32;93.29
71096;DHT22;58753;49.440;11.126;2023-07-30T03:27:47;17.36;93.46
71096;DHT22;58753;49.440;11.126;2023-07-30T03:30:15;17.35;93.41
71096;DHT22;58753;49.440;11.126;2023-07-30T03:32:43;17.36;93.46
71096;DHT22;58753;49.440;11.126;2023-07-30T03:35:08;17.35;93.49
71096;DHT22;58753;49.440;11.126;2023-07-30T03:37:36;17.36;93.59
71096;DHT22;58753;49.440;11.126;2023-07-30T03:40:04;17.31;93.44
71096;DHT22;58753;49.440;11.126;2023-07-30T03:42:30;17.31;93.59
71096;DHT22;58753;49.440;11.126;2023-07-30T03:44:55;17.27;93.60
71096;DHT22;58753;49.440;11.126;2023-07-30T03:47:20;17.25;93.55
71096;DHT22;58753;49.440;11.126;2023-07-30T03:49:46;17.25;93.67
71096;DHT22;58753;49.440;11.126;2023-07-30T03:52:13;17.25;93.76
71096;DHT22;58753;49.440;11.126;2023-07-30T03:54:42;17.25;93.88
71096;DHT22;58753;49.440;11.126;2023-07-30T03:57:08;17.24;93.86
71096;DHT22;58753;49.440;11.126;2023-07-30T03:59:33;17.25;93.88
71096;DHT22;58753;49.440;11.126;2023-07-30T04:01:58;17.25;93.91
71096;DHT22;58753;49.440;11.126;2023-07-30T04:04:26;17.24;93.80
71096;DHT22;58753;49.440;11.126;2023-07-30T04:06:52;17.20;93.89
71096;DHT22;58753;49.440;11.126;2023-07-30T04:09:17;17.21;94.00
71096;DHT22;58753;49.440;11.126;2023-07-30T04:11:42;17.20;94.03
71096;DHT22;58753;49.440;11.126;2023-07-30T04:14:10;17.20;94.06
71096;DHT22;58753;49.440;11.126;2023-07-30T04:16:35;17.20;94.06
71096;DHT22;58753;49.440;11.126;2023-07-30T04:19:03;17.17;94.16
71096;DHT22;58753;49.440;11.126;2023-07-30T04:21:29;17.15;94.08
71096;DHT22;58753;49.440;11.126;2023-07-30T04:23:54;17.15;94.10
71096;DHT22;58753;49.440;11.126;2023-07-30T04:26:19;17.14;94.22
71096;DHT22;58753;49.440;11.126;2023-07-30T04:28:45;17.13;94.20
71096;DHT22;58753;49.440;11.126;2023-07-30T04:31:10;17.15;94.25
71096;DHT22;58753;49.440;11.126;2023-07-30T04:33:35;17.14;94.26
71096;DHT22;58753;49.440;11.126;2023-07-30T04:36:01;17.11;94.27
71096;DHT22;58753;49.440;11.126;2023-07-30T04:38:27;17.08;94.38
71096;DHT22;58753;49.440;11.126;2023-07-30T04:40:57;17.10;94.33
71096;DHT22;58753;49.440;11.126;2023-07-30T04:43:22;17.10;94.42
71096;DHT22;58753;49.440;11.126;2023-07-30T04:45:47;17.15;94.54
71096;DHT22;58753;49.440;11.126;2023-07-30T04:48:13;17.15;94.55
71096;DHT22;58753;49.440;11.126;2023-07-30T04:50:40;17.17;94.62
71096;DHT22;58753;49.440;11.126;2023-07-30T04:53:07;17.15;94.56
71096;DHT22;58753;49.440;11.126;2023-07-30T04:55:33;17.21;94.64
71096;DHT22;58753;49.440;11.126;2023-07-30T04:57:59;17.22;94.79
71096;DHT22;58753;49.440;11.126;2023-07-30T05:00:27;17.24;94.64
71096;DHT22;58753;49.440;11.126;2023-07-30T05:02:52;17.30;94.70
71096;DHT22;58753;49.440;11.126;2023-07-30T05:05:18;17.32;94.81
71096;DHT22;58753;49.440;11.126;2023-07-30T05:07:45;17.41;94.98
71096;DHT22;58753;49.440;11.126;2023-07-30T05:10:11;17.52;94.97
71096;DHT22;58753;49.440;11.126;2023-07-30T05:12:37;17.54;94.85
71096;DHT22;58753;49.440;11.126;2023-07-30T05:15:05;17.55;94.77
71096;DHT22;58753;49.440;11.126;2023-07-30T05:17:30;17.55;94.76
71096;DHT22;58753;49.440;11.126;2023-07-30T05:19:56;17.59;94.77
71096;DHT22;58753;49.440;11.126;2023-07-30T05:22:21;17.59;94.81
71096;DHT22;58753;49.440;11.126;2023-07-30T05:24:49;17.55;94.74
71096;DHT22;58753;49.440;11.126;2023-07-30T05:27:17;17.55;94.77
71096;DHT22;58753;49.440;11.126;2023-07-30T05:29:42;17.54;94.79
71096;DHT22;58753;49.440;11.126;2023-07-30T05:32:08;17.52;94.78
71096;DHT22;58753;49.440;11.126;2023-07-30T05:34:34;17.51;94.72
71096;DHT22;58753;49.440;11.126;2023-07-30T05:36:59;17.48;94.82
71096;DHT22;58753;49.440;11.126;2023-07-30T05:39:24;17.51;94.89
71096;DHT22;58753;49.440;11.126;2023-07-30T05:41:54;17.48;94.81
71096;DHT22;58753;49.440;11.126;2023-07-30T05:44:22;17.45;94.84
71096;DHT22;58753;49.440;11.126;2023-07-30T05:46:48;17.41;94.92
71096;DHT22;58753;49.440;11.126;2023-07-30T05:49:15;17.44;95.00
71096;DHT22;58753;49.440;11.126;2023-07-30T05:51:41;17.42;94.89
71096;DHT22;58753;49.440;11.126;2023-07-30T05:54:06;17.41;94.99
71096;DHT22;58753;49.440;11.126;2023-07-30T05:56:34;17.45;95.16
71096;DHT22;58753;49.440;11.126;2023-07-30T05:58:59;17.49;95.09
71096;DHT22;58753;49.440;11.126;2023-07-30T06:01:24;17.49;95.07
71096;DHT22;58753;49.440;11.126;2023-07-30T06:03:50;17.55;95.05
71096;DHT22;58753;49.440;11.126;2023-07-30T06:06:16;17.52;95.09
71096;DHT22;58753;49.440;11.126;2023-07-30T06:08:51;17.58;95.10
71096;DHT22;58753;49.440;11.126;2023-07-30T06:11:17;17.62;95.15
71096;DHT22;58753;49.440;11.126;2023-07-30T06:13:44;17.65;95.10
71096;DHT22;58753;49.440;11.126;2023-07-30T06:16:10;17.64;94.94
71096;DHT22;58753;49.440;11.126;2023-07-30T06:18:35;17.64;95.13
71096;DHT22;58753;49.440;11.126;2023-07-30T06:21:01;17.71;95.33
71096;DHT22;58753;49.440;11.126;2023-07-30T06:23:31;17.82;95.24
71096;DHT22;58753;49.440;11.126;2023-07-30T06:25:58;17.86;95.46
71096;DHT22;58753;49.440;11.126;2023-07-30T06:28:24;17.97;95.33
71096;DHT22;58753;49.440;11.126;2023-07-30T06:30:49;18.05;95.34
71096;DHT22;58753;49.440;11.126;2023-07-30T06:33:15;18.13;95.31
71096;DHT22;58753;49.440;11.126;2023-07-30T06:35:40;18.14;95.16
71096;DHT22;58753;49.440;11.126;2023-07-30T06:38:08;18.20;95.19
71096;DHT22;58753;49.440;11.126;2023-07-30T06:40:34;18.22;95.12
71096;DHT22;58753;49.440;11.126;2023-07-30T06:42:59;18.20;94.93
71096;DHT22;58753;49.440;11.126;2023-07-30T06:45:28;18.09;94.67
71096;DHT22;58753;49.440;11.126;2023-07-30T06:47:53;18.07;94.84
71096;DHT22;58753;49.440;11.126;2023-07-30T06:50:21;18.07;94.90
71096;DHT22;58753;49.440;11.126;2023-07-30T06:52:46;18.06;94.75
71096;DHT22;58753;49.440;11.126;2023-07-30T06:55:14;18.09;94.91
71096;DHT22;58753;49.440;11.126;2023-07-30T06:57:39;18.07;94.83
71096;DHT22;58753;49.440;11.126;2023-07-30T07:00:05;18.09;94.88
71096;DHT22;58753;49.440;11.126;2023-07-30T07:02:33;18.13;94.99
71096;DHT22;58753;49.440;11.126;2023-07-30T07:04:58;18.14;94.75
71096;DHT22;58753;49.440;11.126;2023-07-30T07:07:26;18.13;94.67
71096;DHT22;58753;49.440;11.126;2023-07-30T07:09:52;18.13;94.76
71096;DHT22;58753;49.440;11.126;2023-07-30T07:12:17;18.16;94.74
71096;DHT22;58753;49.440;11.126;2023-07-30T07:14:42;18.16;94.69
71096;DHT22;58753;49.440;11.126;2023-07-30T07:17:08;18.20;94.58
71096;DHT22;58753;49.440;11.126;2023-07-30T07:19:33;18.20;94.55
71096;DHT22;58753;49.440;11.126;2023-07-30T07:22:04;18.17;94.51
71096;DHT22;58753;49.440;11.126;2023-07-30T07:24:30;18.17;94.48
71096;DHT22;58753;49.440;11.126;2023-07-30T07:26:58;18.19;94.47
71096;DHT22;58753;49.440;11.126;2023-07-30T07:29:26;18.19;94.47
71096;DHT22;58753;49.440;11.126;2023-07-30T07:31:54;18.22;94.42
71096;DHT22;58753;49.440;11.126;2023-07-30T07:34:20;18.25;94.25
71096;DHT22;58753;49.440;11.126;2023-07-30T07:36:45;18.23;94.27
71096;DHT22;58753;49.440;11.126;2023-07-30T07:39:11;18.23;94.22
71096;DHT22;58753;49.440;11.126;2023-07-30T07:41:36;18.22;93.97
71096;DHT22;58753;49.440;11.126;2023-07-30T07:44:01;18.25;94.20
71096;DHT22;58753;49.440;11.126;2023-07-30T07:46:30;18.29;94.13
71096;DHT22;58753;49.440;11.126;2023-07-30T07:48:58;18.33;94.07
71096;DHT22;58753;49.440;11.126;2023-07-30T07:51:28;18.40;94.13
71096;DHT22;58753;49.440;11.126;2023-07-30T07:53:56;18.41;93.96
71096;DHT22;58753;49.440;11.126;2023-07-30T07:56:21;18.38;93.66
71096;DHT22;58753;49.440;11.126;2023-07-30T07:58:49;18.32;93.13
71096;DHT22;58753;49.440;11.126;2023-07-30T08:01:14;18.33;93.02
71096;DHT22;58753;49.440;11.126;2023-07-30T08:03:42;18.36;93.47
71096;DHT22;58753;49.440;11.126;2023-07-30T08:06:07;18.41;93.26
71096;DHT22;58753;49.440;11.126;2023-07-30T08:08:33;18.48;93.50
71096;DHT22;58753;49.440;11.126;2023-07-30T08:11:04;18.56;93.54
71096;DHT22;58753;49.440;11.126;2023-07-30T08:13:30;18.63;93.40
71096;DHT22;58753;49.440;11.126;2023-07-30T08:15:55;18.71;93.07
71096;DHT22;58753;49.440;11.126;2023-07-30T08:18:20;18.72;93.01
71096;DHT22;58753;49.440;11.126;2023-07-30T08:20:46;18.75;93.14
71096;DHT22;58753;49.440;11.126;2023-07-30T08:23:11;18.78;92.83
71096;DHT22;58753;49.440;11.126;2023-07-30T08:25:37;18.78;92.71
71096;DHT22;58753;49.440;11.126;2023-07-30T08:28:02;18.81;92.89
71096;DHT22;58753;49.440;11.126;2023-07-30T08:30:29;18.88;92.64
71096;DHT22;58753;49.440;11.126;2023-07-30T08:32:55;18.88;92.63
71096;DHT22;58753;49.440;11.126;2023-07-30T08:35:23;18.95;92.50
71096;DHT22;58753;49.440;11.126;2023-07-30T08:37:52;19.01;92.39
71096;DHT22;58753;49.440;11.126;2023-07-30T08:40:17;19.05;91.96
71096;DHT22;58753;49.440;11.126;2023-07-30T08:42:43;19.12;92.41
71096;DHT22;58753;49.440;11.126;2023-07-30T08:45:11;19.19;91.84
71096;DHT22;58753;49.440;11.126;2023-07-30T08:47:39;19.18;90.93
71096;DHT22;58753;49.440;11.126;2023-07-30T08:50:08;19.21;91.29
71096;DHT22;58753;49.440;11.126;2023-07-30T08:52:35;19.23;90.80
71096;DHT22;58753;49.440;11.126;2023-07-30T08:55:01;19.26;91.12
71096;DHT22;58753;49.440;11.126;2023-07-30T08:57:28;19.33;90.75
71096;DHT22;58753;49.440;11.126;2023-07-30T09:00:03;19.36;90.71
71096;DHT22;58753;49.440;11.126;2023-07-30T09:05:04;19.51;90.04
71096;DHT22;58753;49.440;11.126;2023-07-30T09:07:30;19.65;90.12
71096;DHT22;58753;49.440;11.126;2023-07-30T09:09:58;19.77;89.84
71096;DHT22;58753;49.440;11.126;2023-07-30T09:12:34;19.77;89.06
71096;DHT22;58753;49.440;11.126;2023-07-30T09:15:02;19.86;89.44
71096;DHT22;58753;49.440;11.126;2023-07-30T09:17:30;19.83;88.93
71096;DHT22;58753;49.440;11.126;2023-07-30T09:19:59;19.90;88.71
71096;DHT22;58753;49.440;11.126;2023-07-30T09:22:32;19.96;88.09
71096;DHT22;58753;49.440;11.126;2023-07-30T09:25:03;19.89;88.05
71096;DHT22;58753;49.440;11.126;2023-07-30T09:27:29;19.94;87.67
71096;DHT22;58753;49.440;11.126;2023-07-30T09:29:59;19.98;87.82
71096;DHT22;58753;49.440;11.126;2023-07-30T09:32:27;20.12;87.57
71096;DHT22;58753;49.440;11.126;2023-07-30T09:34:56;20.09;85.53
71096;DHT22;58753;49.440;11.126;2023-07-30T09:37:29;20.14;86.12
71096;DHT22;58753;49.440;11.126;2023-07-30T09:39:57;20.17;86.06
71096;DHT22;58753;49.440;11.126;2023-07-30T09:42:26;20.36;85.68
71096;DHT22;58753;49.440;11.126;2023-07-30T09:45:01;20.51;84.95
71096;DHT22;58753;49.440;11.126;2023-07-30T09:47:27;20.68;83.87
71096;DHT22;58753;49.440;11.126;2023-07-30T09:49:53;20.67;82.56
71096;DHT22;58753;49.440;11.126;2023-07-30T09:52:20;20.59;82.38
71096;DHT22;58753;49.440;11.126;2023-07-30T09:54:47;20.54;82.54
71096;DHT22;58753;49.440;11.126;2023-07-30T09:57:15;20.54;82.24
71096;DHT22;58753;49.440;11.126;2023-07-30T09:59:40;20.57;82.20
71096;DHT22;58753;49.440;11.126;2023-07-30T10:02:08;20.59;81.90
71096;DHT22;58753;49.440;11.126;2023-07-30T10:04:39;20.71;81.86
71096;DHT22;58753;49.440;11.126;2023-07-30T10:07:10;20.78;81.15
71096;DHT22;58753;49.440;11.126;2023-07-30T10:09:40;20.78;80.34
71096;DHT22;58753;49.440;11.126;2023-07-30T10:12:15;20.89;80.67
71096;DHT22;58753;49.440;11.126;2023-07-30T10:14:42;20.94;80.12
71096;DHT22;58753;49.440;11.126;2023-07-30T10:17:11;20.94;79.85
71096;DHT22;58753;49.440;11.126;2023-07-30T10:19:39;20.92;79.42
71096;DHT22;58753;49.440;11.126;2023-07-30T10:24:42;20.84;79.01
71096;DHT22;58753;49.440;11.126;2023-07-30T10:27:26;20.77;78.88
71096;DHT22;58753;49.440;11.126;2023-07-30T10:30:14;20.69;79.28
71096;DHT22;58753;49.440;11.126;2023-07-30T10:35:38;20.13;80.07
71096;DHT22;58753;49.440;11.126;2023-07-30T10:38:19;19.73;80.67
71096;DHT22;58753;49.440;11.126;2023-07-30T10:41:14;19.38;82.43
71096;DHT22;58753;49.440;11.126;2023-07-30T10:43:43;19.12;83.59
71096;DHT22;58753;49.440;11.126;2023-07-30T10:46:13;18.85;84.26
71096;DHT22;58753;49.440;11.126;2023-07-30T10:48:43;18.50;84.46
71096;DHT22;58753;49.440;11.126;2023-07-30T10:51:11;18.10;84.91
71096;DHT22;58753;49.440;11.126;2023-07-30T10:53:48;17.95;86.17
71096;DHT22;58753;49.440;11.126;2023-07-30T10:56:21;17.87;86.80
71096;DHT22;58753;49.440;11.126;2023-07-30T10:58:53;17.95;87.44
71096;DHT22;58753;49.440;11.126;2023-07-30T11:01:19;17.99;87.53
71096;DHT22;58753;49.440;11.126;2023-07-30T11:03:50;18.13;88.21
71096;DHT22;58753;49.440;11.126;2023-07-30T11:06:25;18.61;89.20
71096;DHT22;58753;49.440;11.126;2023-07-30T11:08:51;18.77;88.46
71096;DHT22;58753;49.440;11.126;2023-07-30T11:11:19;18.83;88.45
71096;DHT22;58753;49.440;11.126;2023-07-30T11:13:46;18.95;89.19
71096;DHT22;58753;49.440;11.126;2023-07-30T11:16:13;19.01;88.94
71096;DHT22;58753;49.440;11.126;2023-07-30T11:18:41;18.98;88.71
71096;DHT22;58753;49.440;11.126;2023-07-30T11:21:14;19.02;88.97
71096;DHT22;58753;49.440;11.126;2023-07-30T11:23:41;19.05;89.16
71096;DHT22;58753;49.440;11.126;2023-07-30T11:26:08;19.01;88.46
71096;DHT22;58753;49.440;11.126;2023-07-30T11:28:35;18.98;88.99
71096;DHT22;58753;49.440;11.126;2023-07-30T11:33:31;18.78;88.29
71096;DHT22;58753;49.440;11.126;2023-07-30T11:36:00;18.83;88.61
71096;DHT22;58753;49.440;11.126;2023-07-30T11:38:26;18.87;89.00
71096;DHT22;58753;49.440;11.126;2023-07-30T11:40:53;18.98;88.47
71096;DHT22;58753;49.440;11.126;2023-07-30T11:43:20;18.95;88.27
71096;DHT22;58753;49.440;11.126;2023-07-30T11:45:46;18.97;88.16
71096;DHT22;58753;49.440;11.126;2023-07-30T11:48:11;19.02;88.00
71096;DHT22;58753;49.440;11.126;2023-07-30T11:50:50;19.08;87.77
71096;DHT22;58753;49.440;11.126;2023-07-30T11:53:18;19.04;87.11
71096;DHT22;58753;49.440;11.126;2023-07-30T11:55:44;19.12;86.79
71096;DHT22;58753;49.440;11.126;2023-07-30T11:58:12;19.12;86.02
71096;DHT22;58753;49.440;11.126;2023-07-30T12:00:40;19.16;85.59
71096;DHT22;58753;49.440;11.126;2023-07-30T12:03:09;19.22;85.42
71096;DHT22;58753;49.440;11.126;2023-07-30T12:05:39;19.26;85.70
71096;DHT22;58753;49.440;11.126;2023-07-30T12:08:13;19.53;86.06
71096;DHT22;58753;49.440;11.126;2023-07-30T12:10:43;19.74;85.08
71096;DHT22;58753;49.440;11.126;2023-07-30T12:13:16;19.73;84.24
71096;DHT22;58753;49.440;11.126;2023-07-30T12:15:56;19.72;83.90
71096;DHT22;58753;49.440;11.126;2023-07-30T12:18:25;19.69;83.06
71096;DHT22;58753;49.440;11.126;2023-07-30T12:20:52;19.72;83.53
71096;DHT22;58753;49.440;11.126;2023-07-30T12:23:18;19.93;83.97
71096;DHT22;58753;49.440;11.126;2023-07-30T12:25:44;20.31;83.30
71096;DHT22;58753;49.440;11.126;2023-07-30T12:28:10;20.40;81.97
71096;DHT22;58753;49.440;11.126;2023-07-30T12:30:35;20.44;81.44
71096;DHT22;58753;49.440;11.126;2023-07-30T12:33:02;20.48;81.15
71096;DHT22;58753;49.440;11.126;2023-07-30T12:35:31;20.61;80.95
71096;DHT22;58753;49.440;11.126;2023-07-30T12:37:57;20.63;80.15
71096;DHT22;58753;49.440;11.126;2023-07-30T12:40:22;20.48;77.87
71096;DHT22;58753;49.440;11.126;2023-07-30T12:42:48;20.55;78.64
71096;DHT22;58753;49.440;11.126;2023-07-30T12:45:13;20.61;78.18
71096;DHT22;58753;49.440;11.126;2023-07-30T12:47:40;20.65;77.75
71096;DHT22;58753;49.440;11.126;2023-07-30T12:50:08;20.74;77.49
71096;DHT22;58753;49.440;11.126;2023-07-30T12:52:36;20.71;75.26
71096;DHT22;58753;49.440;11.126;2023-07-30T12:55:04;20.77;73.88
71096;DHT22;58753;49.440;11.126;2023-07-30T12:57:30;20.98;73.51
71096;DHT22;58753;49.440;11.126;2023-07-30T12:59:55;21.22;71.96
71096;DHT22;58753;49.440;11.126;2023-07-30T13:02:23;21.23;72.30
71096;DHT22;58753;49.440;11.126;2023-07-30T13:04:49;21.69;71.17
71096;DHT22;58753;49.440;11.126;2023-07-30T13:07:19;21.63;70.08
71096;DHT22;58753;49.440;11.126;2023-07-30T13:09:46;21.59;69.77
71096;DHT22;58753;49.440;11.126;2023-07-30T13:12:12;21.39;68.90
71096;DHT22;58753;49.440;11.126;2023-07-30T13:14:40;21.26;68.42
71096;DHT22;58753;49.440;11.126;2023-07-30T13:17:05;21.09;67.66
71096;DHT22;58753;49.440;11.126;2023-07-30T13:19:30;21.15;68.12
71096;DHT22;58753;49.440;11.126;2023-07-30T13:21:57;21.74;69.08
71096;DHT22;58753;49.440;11.126;2023-07-30T13:24:22;22.28;67.45
71096;DHT22;58753;49.440;11.126;2023-07-30T13:26:48;22.75;66.81
71096;DHT22;58753;49.440;11.126;2023-07-30T13:29:16;23.24;67.42
71096;DHT22;58753;49.440;11.126;2023-07-30T13:31:43;23.37;63.30
71096;DHT22;58753;49.440;11.126;2023-07-30T13:34:09;23.68;62.51
71096;DHT22;58753;49.440;11.126;2023-07-30T13:36:34;23.19;59.82
71096;DHT22;58753;49.440;11.126;2023-07-30T13:38:59;23.19;61.63
71096;DHT22;58753;49.440;11.126;2023-07-30T13:41:27;22.85;59.91
71096;DHT22;58753;49.440;11.126;2023-07-30T13:43:52;22.66;60.86
71096;DHT22;58753;49.440;11.126;2023-07-30T13:46:18;22.43;59.85
71096;DHT22;58753;49.440;11.126;2023-07-30T13:48:43;22.84;59.20
71096;DHT22;58753;49.440;11.126;2023-07-30T13:51:08;23.19;57.41
71096;DHT22;58753;49.440;11.126;2023-07-30T13:53:34;23.00;56.43
71096;DHT22;58753;49.440;11.126;2023-07-30T13:56:03;22.75;57.18
71096;DHT22;58753;49.440;11.126;2023-07-30T13:58:28;22.56;57.39
71096;DHT22;58753;49.440;11.126;2023-07-30T14:00:54;22.48;57.60
71096;DHT22;58753;49.440;11.126;2023-07-30T14:03:23;22.35;56.93
71096;DHT22;58753;49.440;11.126;2023-07-30T14:05:48;22.22;56.80
71096;DHT22;58753;49.440;11.126;2023-07-30T14:08:13;22.17;57.30
71096;DHT22;58753;49.440;11.126;2023-07-30T14:10:41;22.11;56.72
71096;DHT22;58753;49.440;11.126;2023-07-30T14:13:06;22.05;57.28
71096;DHT22;58753;49.440;11.126;2023-07-30T14:15:32;21.98;57.14
71096;DHT22;58753;49.440;11.126;2023-07-30T14:18:03;22.03;59.13
71096;DHT22;58753;49.440;11.126;2023-07-30T14:20:31;22.01;58.59
71096;DHT22;58753;49.440;11.126;2023-07-30T14:22:57;22.01;59.24
71096;DHT22;58753;49.440;11.126;2023-07-30T14:25:26;22.17;58.61
71096;DHT22;58753;49.440;11.126;2023-07-30T14:27:54;22.71;59.40
71096;DHT22;58753;49.440;11.126;2023-07-30T14:30:22;23.23;58.32
71096;DHT22;58753;49.440;11.126;2023-07-30T14:32:47;23.53;57.04
71096;DHT22;58753;49.440;11.126;2023-07-30T14:35:12;23.61;55.97
71096;DHT22;58753;49.440;11.126;2023-07-30T14:37:38;23.60;53.36
71096;DHT22;58753;49.440;11.126;2023-07-30T14:40:04;23.63;52.93
71096;DHT22;58753;49.440;11.126;2023-07-30T14:42:29;23.39;52.34
71096;DHT22;58753;49.440;11.126;2023-07-30T14:44:55;23.09;52.40
71096;DHT22;58753;49.440;11.126;2023-07-30T14:47:20;22.73;51.84
71096;DHT22;58753;49.440;11.126;2023-07-30T14:49:52;22.61;53.24
71096;DHT22;58753;49.440;11.126;2023-07-30T14:52:17;22.48;53.98
71096;DHT22;58753;49.440;11.126;2023-07-30T14:54:46;22.61;54.92
71096;DHT22;58753;49.440;11.126;2023-07-30T14:57:11;22.79;53.76
71096;DHT22;58753;49.440;11.126;2023-07-30T14:59:37;23.13;53.66
71096;DHT22;58753;49.440;11.126;2023-07-30T15:02:05;23.39;51.61
71096;DHT22;58753;49.440;11.126;2023-07-30T15:04:35;23.53;51.93
71096;DHT22;58753;49.440;11.126;2023-07-30T15:07:04;23.31;50.10
71096;DHT22;58753;49.440;11.126;2023-07-30T15:09:29;23.02;49.83
71096;DHT22;58753;49.440;11.126;2023-07-30T15:12:00;22.78;50.79
71096;DHT22;58753;49.440;11.126;2023-07-30T15:14:25;22.65;51.51
71096;DHT22;58753;49.440;11.126;2023-07-30T15:16:50;22.55;52.10
71096;DHT22;58753;49.440;11.126;2023-07-30T15:19:18;22.47;53.03
71096;DHT22;58753;49.440;11.126;2023-07-30T15:21:44;22.41;53.26
71096;DHT22;58753;49.440;11.126;2023-07-30T15:24:09;22.73;54.35